Münster Osnabrück Airport

METAR EDDW TAF EDDW
6 °C
°C
-
°C
18m
Leeftijd
05:38:08
LT
04:38
UTC
0 ft

1.000

2.000

3.000

4.000

5.000

BKN 800
FEW 0
IFR
<?= Yii::t('app', 'Wind direction') ?> <?= Yii::t('app', 'of'); ?>
250°
08:11
Zonsopgang
93%
Luchtvochtigheid
Windschering
Gesloten/sneeuw
Baanzicht
Baanconditie
Verticaal zicht
Min. zicht
CAVOK
Trend
Correctie
Speciaal rapport
1008 hPa
QNH
METAR EDDW 300420Z AUTO 25016KT 4800 -SHRA BR BKN008 FEW///TCU 06/05 Q1008 RESHRA TEMPO 27020G30KT 6000
Lichte buien regen, nevel
0 kt
0 kt
05:00
IFR
15 kt
06:00
MVFR
15 kt
07:00
MVFR
20 kt
08:00
MVFR
20 kt
09:00
MVFR
20 kt
10:00
IFR
25 kt
11:00
IFR
25 kt
4,8 km
Zicht
800 ft
Plafond
16 kt
Wind
metar-taf.com/EDDG

Metar-Taf.com

Visuele decoder

Wij en derden volgen je internetgedrag op onze website met cookies. Als je doorgaat, gaan we ervan uit dat je akkoord gaat met onze cookiebeleid.